createdAt,value
2019-01-29T00:01:48.728Z,1.85
2019-01-29T00:04:19.800Z,1.77
2019-01-29T00:06:50.906Z,1.76
2019-01-29T00:09:21.676Z,1.77
2019-01-29T00:11:52.597Z,1.72
2019-01-29T00:14:23.434Z,1.66
2019-01-29T00:16:54.552Z,1.69
2019-01-29T00:19:25.576Z,1.78
2019-01-29T00:21:56.411Z,1.82
2019-01-29T00:24:27.942Z,1.80
2019-01-29T00:26:59.819Z,1.77
2019-01-29T00:29:30.685Z,1.82
2019-01-29T00:32:01.795Z,1.81
2019-01-29T00:34:32.893Z,1.84
2019-01-29T00:37:04.047Z,1.89
2019-01-29T00:39:34.871Z,1.88
2019-01-29T00:42:05.947Z,1.88
2019-01-29T00:44:37.030Z,1.98
2019-01-29T00:47:07.905Z,1.89
2019-01-29T00:49:39.085Z,1.83
2019-01-29T00:52:10.137Z,1.79
2019-01-29T00:54:41.047Z,1.83
2019-01-29T00:57:12.115Z,1.75
2019-01-29T00:59:43.109Z,1.71
2019-01-29T01:02:14.006Z,1.78
2019-01-29T01:04:45.101Z,1.78
2019-01-29T01:07:16.102Z,1.78
2019-01-29T01:09:47.164Z,1.66
2019-01-29T01:12:18.096Z,1.52
2019-01-29T01:14:49.159Z,1.34
2019-01-29T01:17:20.080Z,1.25
2019-01-29T01:19:51.168Z,1.13
2019-01-29T01:22:22.081Z,1.10
2019-01-29T01:24:52.927Z,1.13
2019-01-29T01:27:24.255Z,1.01
2019-01-29T01:29:55.084Z,0.97
2019-01-29T01:32:25.863Z,0.93
2019-01-29T01:34:56.718Z,0.86
2019-01-29T01:37:28.089Z,0.86
2019-01-29T01:39:58.868Z,0.88
2019-01-29T01:42:29.922Z,0.92
2019-01-29T01:45:01.214Z,1.02
2019-01-29T01:47:32.225Z,0.99
2019-01-29T01:50:03.191Z,1.03
2019-01-29T01:52:34.531Z,1.05
2019-01-29T01:55:06.789Z,1.13
2019-01-29T01:57:37.959Z,1.14
2019-01-29T02:00:14.082Z,1.20
2019-01-29T02:02:45.049Z,1.26
2019-01-29T02:05:16.031Z,1.31
2019-01-29T02:07:47.234Z,1.29
2019-01-29T02:10:26.913Z,1.29
2019-01-29T02:12:57.867Z,1.32
2019-01-29T02:15:28.820Z,1.31
2019-01-29T02:17:59.826Z,1.50
2019-01-29T02:20:30.923Z,1.58
2019-01-29T02:23:07.720Z,1.53
2019-01-29T02:25:34.559Z,1.44
2019-01-29T02:28:05.727Z,1.50
2019-01-29T02:30:37.783Z,1.43
2019-01-29T02:33:09.306Z,1.40
2019-01-29T02:35:40.247Z,1.45
2019-01-29T02:38:11.870Z,1.51
2019-01-29T02:40:43.277Z,1.46
2019-01-29T02:43:14.542Z,1.53
2019-01-29T02:45:45.596Z,1.53
2019-01-29T02:48:16.680Z,1.45
2019-01-29T02:50:48.124Z,1.37
2019-01-29T02:54:12.589Z,1.38
2019-01-29T03:00:11.190Z,1.37
2019-01-29T03:06:06.654Z,1.24
2019-01-29T03:08:37.763Z,1.23
2019-01-29T03:11:09.406Z,1.24
2019-01-29T03:16:29.233Z,1.24
2019-01-29T03:19:00.593Z,1.10
2019-01-29T03:21:31.969Z,1.01
2019-01-29T03:24:03.674Z,1.06
2019-01-29T03:26:35.162Z,1.05
2019-01-29T03:29:06.284Z,1.03
2019-01-29T03:31:37.821Z,1.06
2019-01-29T03:34:09.363Z,1.02
2019-01-29T03:36:40.325Z,1.11
2019-01-29T03:39:11.657Z,1.29
2019-01-29T03:41:45.823Z,1.23
2019-01-29T03:44:17.751Z,1.29
2019-01-29T03:46:48.986Z,1.38
2019-01-29T03:49:20.407Z,1.39
2019-01-29T03:51:51.477Z,1.46
2019-01-29T03:54:23.122Z,1.45
2019-01-29T03:56:54.545Z,1.49
2019-01-29T03:59:26.036Z,1.50
2019-01-29T04:01:57.144Z,1.56
2019-01-29T04:04:28.478Z,1.55
2019-01-29T04:06:59.616Z,1.66
2019-01-29T04:09:30.722Z,1.56
2019-01-29T04:12:01.887Z,1.53
2019-01-29T04:14:33.079Z,1.62
2019-01-29T04:17:04.219Z,1.62
2019-01-29T04:19:35.327Z,1.74
2019-01-29T04:22:06.320Z,1.78
2019-01-29T04:24:37.831Z,1.77
2019-01-29T04:27:09.022Z,1.65
2019-01-29T04:29:40.778Z,1.69
2019-01-29T04:32:12.147Z,1.66
2019-01-29T04:34:45.491Z,1.68
2019-01-29T04:37:16.628Z,1.69
2019-01-29T04:39:48.152Z,1.66
2019-01-29T04:42:19.454Z,1.65
2019-01-29T04:44:50.841Z,1.72
2019-01-29T04:47:22.953Z,1.64
2019-01-29T04:49:54.644Z,1.58
2019-01-29T04:52:25.961Z,1.58
2019-01-29T04:54:57.014Z,1.62
2019-01-29T04:57:28.046Z,1.70
2019-01-29T04:59:59.671Z,1.65
2019-01-29T05:02:30.815Z,1.65
2019-01-29T05:05:01.916Z,1.66
2019-01-29T05:07:33.320Z,1.61
2019-01-29T05:10:05.232Z,1.56
2019-01-29T05:12:36.477Z,1.58
2019-01-29T05:15:10.563Z,1.58
2019-01-29T05:17:41.857Z,1.64
2019-01-29T05:20:15.361Z,1.70
2019-01-29T05:22:46.503Z,1.61
2019-01-29T05:25:17.706Z,1.58
2019-01-29T05:27:50.130Z,1.53
2019-01-29T05:30:23.378Z,1.58
2019-01-29T05:32:54.734Z,1.54
2019-01-29T05:35:25.844Z,1.55
2019-01-29T05:37:57.048Z,1.60
2019-01-29T05:40:28.170Z,1.61
2019-01-29T05:42:59.204Z,1.63
2019-01-29T05:45:30.724Z,1.64
2019-01-29T05:48:02.073Z,1.67
2019-01-29T05:50:33.326Z,1.78
2019-01-29T05:53:04.695Z,1.67
2019-01-29T05:55:35.748Z,1.76
2019-01-29T05:58:07.272Z,1.72
2019-01-29T06:00:40.864Z,1.64
2019-01-29T06:03:11.953Z,1.62
2019-01-29T06:05:43.101Z,1.76
2019-01-29T06:08:14.137Z,1.55
2019-01-29T06:10:45.004Z,1.55
2019-01-29T06:13:15.983Z,1.72
2019-01-29T06:15:47.579Z,1.60
2019-01-29T06:18:18.827Z,1.47
2019-01-29T06:20:49.937Z,1.43
2019-01-29T06:23:21.004Z,1.42
2019-01-29T06:25:51.984Z,1.41
2019-01-29T06:28:23.192Z,1.44
2019-01-29T06:30:56.661Z,1.37
2019-01-29T06:33:26.659Z,1.32
2019-01-29T06:35:57.711Z,1.41
2019-01-29T06:38:28.557Z,1.35
2019-01-29T06:40:59.433Z,1.27
2019-01-29T06:43:30.332Z,1.27
2019-01-29T06:46:01.140Z,1.15
2019-01-29T06:48:32.004Z,1.14
2019-01-29T06:51:03.239Z,1.16
2019-01-29T06:53:34.433Z,1.15
2019-01-29T06:56:05.528Z,1.06
2019-01-29T06:58:36.719Z,0.97
2019-01-29T07:01:07.597Z,1.09
2019-01-29T07:03:38.422Z,0.98
2019-01-29T07:06:09.645Z,0.92
2019-01-29T07:08:40.547Z,0.85
2019-01-29T07:11:11.411Z,0.95
2019-01-29T07:13:42.420Z,1.01
2019-01-29T07:16:31.025Z,0.97
2019-01-29T07:19:05.761Z,0.86
2019-01-29T07:21:36.802Z,0.70
2019-01-29T07:24:07.860Z,0.63
2019-01-29T07:26:39.800Z,0.79
2019-01-29T07:29:10.994Z,0.84
2019-01-29T07:31:42.284Z,0.85
2019-01-29T07:34:13.540Z,0.88
2019-01-29T07:36:44.851Z,0.93
2019-01-29T07:39:16.025Z,1.16
2019-01-29T07:41:47.476Z,1.16
2019-01-29T07:44:18.348Z,1.25
2019-01-29T07:46:49.871Z,1.34
2019-01-29T07:49:20.768Z,1.43
2019-01-29T07:51:52.053Z,1.46
2019-01-29T07:54:23.360Z,1.52
2019-01-29T07:56:54.213Z,1.56
2019-01-29T07:59:32.439Z,1.66
2019-01-29T08:01:57.650Z,1.65
2019-01-29T08:04:28.699Z,1.71
2019-01-29T08:06:59.569Z,1.66
2019-01-29T08:09:30.677Z,1.75
2019-01-29T08:12:01.882Z,1.68
2019-01-29T08:14:33.181Z,1.63
2019-01-29T08:17:05.453Z,1.86
2019-01-29T08:19:36.672Z,1.76
2019-01-29T08:22:07.802Z,1.76
2019-01-29T08:24:39.194Z,1.79
2019-01-29T08:27:10.333Z,1.74
2019-01-29T08:29:41.406Z,1.70
2019-01-29T08:32:12.520Z,1.78
2019-01-29T08:34:43.558Z,1.74
2019-01-29T08:37:14.489Z,1.77
2019-01-29T08:39:45.699Z,1.74
2019-01-29T08:42:16.566Z,1.78
2019-01-29T08:44:47.424Z,1.77
2019-01-29T08:47:18.373Z,1.82
2019-01-29T08:49:49.151Z,1.85
2019-01-29T08:52:20.186Z,1.82
2019-01-29T08:54:50.961Z,1.88
2019-01-29T08:57:22.321Z,1.89
2019-01-29T08:59:53.641Z,1.83
2019-01-29T09:02:24.516Z,1.79
2019-01-29T09:04:56.260Z,1.88
2019-01-29T09:07:27.365Z,1.96
2019-01-29T09:09:58.435Z,2.14
2019-01-29T09:12:29.564Z,2.06
2019-01-29T09:15:00.968Z,1.92
2019-01-29T09:17:32.076Z,1.98
2019-01-29T09:20:03.309Z,1.97
2019-01-29T09:22:34.456Z,2.05
2019-01-29T09:25:06.416Z,2.21
2019-01-29T09:27:37.525Z,2.22
2019-01-29T09:30:11.188Z,2.34
2019-01-29T09:32:42.053Z,2.34
2019-01-29T09:35:13.054Z,2.36
2019-01-29T09:37:44.157Z,2.26
2019-01-29T09:40:16.990Z,2.40
2019-01-29T09:42:48.000Z,2.40
2019-01-29T09:45:19.937Z,2.42
2019-01-29T09:47:51.176Z,2.43
2019-01-29T09:50:23.124Z,2.38
2019-01-29T09:52:54.566Z,2.49
2019-01-29T09:55:29.564Z,2.52
2019-01-29T09:57:58.709Z,2.58
2019-01-29T10:00:31.695Z,2.52
2019-01-29T10:03:02.638Z,2.59
2019-01-29T10:05:34.086Z,2.60
2019-01-29T10:08:06.111Z,2.59
2019-01-29T10:10:36.950Z,2.67
2019-01-29T10:13:07.818Z,2.61
2019-01-29T10:15:38.747Z,2.68
2019-01-29T10:18:09.843Z,2.77
2019-01-29T10:20:40.746Z,2.83
2019-01-29T10:23:11.537Z,2.81
2019-01-29T10:25:43.349Z,2.92
2019-01-29T10:28:14.215Z,3.12
2019-01-29T10:30:45.289Z,3.06
2019-01-29T10:33:16.855Z,3.20
2019-01-29T10:35:47.832Z,3.18
2019-01-29T10:38:18.905Z,3.17
2019-01-29T10:40:49.984Z,3.18
2019-01-29T10:43:21.099Z,3.29
2019-01-29T10:45:52.017Z,3.37
2019-01-29T10:48:22.812Z,3.31
2019-01-29T10:50:53.759Z,3.45
2019-01-29T10:53:24.550Z,3.42
2019-01-29T10:55:55.800Z,3.47
2019-01-29T10:58:26.957Z,3.38
2019-01-29T11:00:57.891Z,3.27
2019-01-29T11:03:28.943Z,3.27
2019-01-29T11:06:00.020Z,3.33
2019-01-29T11:08:31.122Z,3.41
2019-01-29T11:11:02.195Z,3.34
2019-01-29T11:13:33.242Z,3.58
2019-01-29T11:16:04.423Z,3.62
2019-01-29T11:18:35.360Z,4.00
2019-01-29T11:21:06.287Z,3.83
2019-01-29T11:23:37.192Z,3.78
2019-01-29T11:26:08.406Z,3.56
2019-01-29T11:28:39.287Z,3.78
2019-01-29T11:31:10.295Z,3.58
2019-01-29T11:33:41.193Z,3.52
2019-01-29T11:36:11.989Z,3.52
2019-01-29T11:38:42.866Z,3.50
2019-01-29T11:41:14.301Z,3.66
2019-01-29T11:43:45.174Z,3.54
2019-01-29T11:46:16.086Z,3.71
2019-01-29T11:48:46.955Z,3.87
2019-01-29T11:51:17.815Z,3.80
2019-01-29T11:53:48.690Z,3.78
2019-01-29T11:56:19.945Z,3.85
2019-01-29T11:58:50.812Z,3.94
2019-01-29T12:01:24.317Z,4.27
2019-01-29T12:03:55.661Z,4.35
2019-01-29T12:06:26.512Z,4.48
2019-01-29T12:08:57.382Z,4.47
2019-01-29T12:11:28.456Z,4.49
2019-01-29T12:13:59.255Z,4.22
2019-01-29T12:16:30.270Z,4.24
2019-01-29T12:19:01.292Z,4.23
2019-01-29T12:21:32.718Z,4.27
2019-01-29T12:24:03.661Z,4.27
2019-01-29T12:26:34.647Z,4.41
2019-01-29T12:29:06.027Z,4.52
2019-01-29T12:31:37.376Z,4.51
2019-01-29T12:34:08.168Z,4.45
2019-01-29T12:36:39.014Z,4.46
2019-01-29T12:39:10.173Z,4.55
2019-01-29T12:41:41.144Z,4.63
2019-01-29T12:44:12.312Z,4.55
2019-01-29T12:46:43.151Z,4.52
2019-01-29T12:49:14.252Z,4.66
2019-01-29T12:52:06.922Z,4.67
2019-01-29T12:54:38.093Z,4.78
2019-01-29T12:57:09.190Z,4.57
2019-01-29T12:59:40.293Z,4.41
2019-01-29T13:02:11.324Z,4.44
2019-01-29T13:04:42.262Z,4.48
2019-01-29T13:07:13.175Z,4.57
2019-01-29T13:09:44.146Z,4.42
2019-01-29T13:12:15.192Z,4.37
2019-01-29T13:14:46.217Z,4.30
2019-01-29T13:17:17.089Z,4.34
2019-01-29T13:19:47.952Z,4.50
2019-01-29T13:22:18.798Z,4.37
2019-01-29T13:24:49.891Z,4.53
2019-01-29T13:27:20.916Z,4.81
2019-01-29T13:29:52.113Z,4.62
2019-01-29T13:32:23.117Z,4.71
2019-01-29T13:34:53.907Z,4.89
2019-01-29T13:37:24.780Z,4.86
2019-01-29T13:39:55.876Z,4.92
2019-01-29T13:42:26.718Z,4.94
2019-01-29T13:44:57.784Z,5.00
2019-01-29T13:47:28.620Z,4.89
2019-01-29T13:49:59.758Z,4.91
2019-01-29T13:52:30.800Z,5.00
2019-01-29T13:55:01.595Z,4.79
2019-01-29T13:57:32.511Z,4.57
2019-01-29T14:00:03.816Z,4.73
2019-01-29T14:02:34.777Z,4.73
2019-01-29T14:05:05.862Z,4.85
2019-01-29T14:07:36.775Z,4.88
2019-01-29T14:10:08.254Z,4.91
2019-01-29T14:12:39.396Z,4.80
2019-01-29T14:15:13.770Z,4.86
2019-01-29T14:17:47.211Z,4.73
2019-01-29T14:20:18.216Z,4.71
2019-01-29T14:22:49.628Z,4.81
2019-01-29T14:25:20.423Z,4.78
2019-01-29T14:27:51.560Z,4.60
2019-01-29T14:30:22.569Z,4.50
2019-01-29T14:32:53.744Z,4.51
2019-01-29T14:35:24.606Z,4.53
2019-01-29T14:38:49.343Z,4.57
2019-01-29T14:41:21.851Z,4.23
2019-01-29T14:43:58.013Z,4.32
2019-01-29T14:46:28.837Z,4.20
2019-01-29T14:48:59.915Z,4.13
2019-01-29T14:51:31.007Z,4.07
2019-01-29T14:54:02.210Z,4.02
2019-01-29T14:56:33.258Z,4.00
2019-01-29T14:59:04.246Z,3.95
2019-01-29T15:01:35.406Z,3.97
2019-01-29T15:04:06.272Z,3.97
2019-01-29T15:06:37.136Z,3.99
2019-01-29T15:09:10.735Z,3.94
2019-01-29T15:11:41.575Z,4.04
2019-01-29T15:14:13.317Z,3.95
2019-01-29T15:17:21.165Z,3.96
2019-01-29T15:19:52.421Z,3.97
2019-01-29T15:22:23.587Z,3.96
2019-01-29T15:24:54.357Z,3.87
2019-01-29T15:27:25.376Z,3.95
2019-01-29T15:29:56.210Z,3.79
2019-01-29T15:32:27.087Z,3.80
2019-01-29T15:34:58.263Z,3.79
2019-01-29T15:37:29.125Z,3.79
2019-01-29T15:39:59.893Z,3.71
2019-01-29T15:42:30.768Z,3.69
2019-01-29T15:45:01.548Z,3.56
2019-01-29T15:47:32.868Z,3.52
2019-01-29T15:50:04.429Z,3.46
2019-01-29T15:52:35.236Z,3.44
2019-01-29T15:55:07.796Z,3.37
2019-01-29T15:57:38.888Z,3.37
2019-01-29T16:00:14.172Z,3.32
2019-01-29T16:02:45.114Z,3.26
2019-01-29T16:05:18.641Z,3.25
2019-01-29T16:07:49.406Z,3.21
2019-01-29T16:10:23.250Z,3.17
2019-01-29T16:12:54.479Z,3.10
2019-01-29T16:15:25.745Z,3.05
2019-01-29T16:17:56.970Z,3.10
2019-01-29T16:20:27.830Z,3.19
2019-01-29T16:22:58.706Z,2.96
2019-01-29T16:25:29.676Z,2.88
2019-01-29T16:28:01.106Z,2.85
2019-01-29T16:30:32.240Z,2.75
2019-01-29T16:33:03.119Z,2.53
2019-01-29T16:35:34.175Z,2.50
2019-01-29T16:38:05.382Z,2.44
2019-01-29T16:40:36.939Z,2.29
2019-01-29T16:43:08.045Z,2.21
2019-01-29T16:45:39.486Z,2.15
2019-01-29T16:48:10.567Z,2.12
2019-01-29T16:50:42.068Z,2.03
2019-01-29T16:53:12.958Z,1.98
2019-01-29T16:55:43.817Z,1.89
2019-01-29T16:58:14.934Z,1.85
2019-01-29T17:00:45.886Z,1.75
2019-01-29T17:03:17.058Z,1.76
2019-01-29T17:05:48.161Z,1.71
2019-01-29T17:08:19.352Z,1.65
2019-01-29T17:10:50.458Z,1.69
2019-01-29T17:13:21.702Z,1.70
2019-01-29T17:15:52.579Z,1.60
2019-01-29T17:18:23.452Z,1.43
2019-01-29T17:20:54.554Z,1.40
2019-01-29T17:23:25.429Z,1.30
2019-01-29T17:25:56.356Z,1.26
2019-01-29T17:28:27.225Z,1.14
2019-01-29T17:30:59.610Z,1.13
2019-01-29T17:33:30.893Z,1.13
2019-01-29T17:36:02.108Z,1.09
2019-01-29T17:38:32.917Z,1.08
2019-01-29T17:41:03.709Z,1.01
2019-01-29T17:43:34.808Z,1.01
2019-01-29T17:46:05.689Z,1.01
2019-01-29T17:48:36.500Z,0.98
2019-01-29T17:51:07.363Z,0.97
2019-01-29T17:53:38.473Z,0.98
2019-01-29T17:56:09.328Z,1.02
2019-01-29T17:58:40.556Z,1.06
2019-01-29T18:01:12.542Z,1.03
2019-01-29T18:03:43.631Z,0.99
2019-01-29T18:06:14.501Z,0.98
2019-01-29T18:08:49.799Z,0.93
2019-01-29T18:11:18.211Z,0.86
2019-01-29T18:13:49.487Z,0.84
2019-01-29T18:16:20.434Z,0.79
2019-01-29T18:18:51.543Z,0.80
2019-01-29T18:21:22.631Z,0.76
2019-01-29T18:23:53.648Z,0.73
2019-01-29T18:26:24.772Z,0.72
2019-01-29T18:28:55.973Z,0.69
2019-01-29T18:31:27.183Z,0.63
2019-01-29T18:33:58.047Z,0.60
2019-01-29T18:36:28.842Z,0.57
2019-01-29T18:38:59.690Z,0.58
2019-01-29T18:41:30.749Z,0.48
2019-01-29T18:44:01.794Z,0.46
2019-01-29T18:46:32.896Z,0.38
2019-01-29T18:49:04.080Z,0.40
2019-01-29T18:51:35.368Z,0.40
2019-01-29T18:54:07.820Z,0.39
2019-01-29T18:56:38.905Z,0.35
2019-01-29T18:59:10.006Z,0.38
2019-01-29T19:01:41.072Z,0.37
2019-01-29T19:04:12.016Z,0.39
2019-01-29T19:06:42.865Z,0.39
2019-01-29T19:09:13.740Z,0.34
2019-01-29T19:11:44.831Z,0.36
2019-01-29T19:14:15.926Z,0.35
2019-01-29T19:16:46.883Z,0.33
2019-01-29T19:19:17.985Z,0.31
2019-01-29T19:21:49.163Z,0.35
2019-01-29T19:24:20.193Z,0.35
2019-01-29T19:26:51.195Z,0.33
2019-01-29T19:29:22.167Z,0.32
2019-01-29T19:31:53.003Z,0.27
2019-01-29T19:34:24.021Z,0.35
2019-01-29T19:36:55.028Z,0.42
2019-01-29T19:39:26.283Z,0.34
2019-01-29T19:41:57.292Z,0.32
2019-01-29T19:44:28.238Z,0.32
2019-01-29T19:46:59.017Z,0.23
2019-01-29T19:49:30.136Z,0.24
2019-01-29T19:52:01.418Z,0.25
2019-01-29T19:54:32.233Z,0.25
2019-01-29T19:57:03.080Z,0.18
2019-01-29T19:59:34.193Z,0.20
2019-01-29T20:02:05.528Z,0.19
2019-01-29T20:04:36.876Z,0.16
2019-01-29T20:07:07.819Z,0.18
2019-01-29T20:09:38.942Z,0.18
2019-01-29T20:12:09.836Z,0.14
2019-01-29T20:14:40.656Z,0.23
2019-01-29T20:17:11.423Z,0.24
2019-01-29T20:19:42.222Z,0.27
2019-01-29T20:22:13.382Z,0.30
2019-01-29T20:24:44.481Z,0.23
2019-01-29T20:27:15.333Z,0.25
2019-01-29T20:29:46.560Z,0.21
2019-01-29T20:32:17.995Z,0.17
2019-01-29T20:34:49.137Z,0.18
2019-01-29T20:37:20.552Z,0.24
2019-01-29T20:39:51.410Z,0.22
2019-01-29T20:42:22.501Z,0.26
2019-01-29T20:44:53.343Z,0.25
2019-01-29T20:47:24.146Z,0.27
2019-01-29T20:49:55.377Z,0.30
2019-01-29T20:52:26.146Z,0.29
2019-01-29T20:54:57.238Z,0.27
2019-01-29T20:57:28.022Z,0.33
2019-01-29T20:59:58.816Z,0.28
2019-01-29T21:02:29.656Z,0.25
2019-01-29T21:05:00.508Z,0.29
2019-01-29T21:07:32.537Z,0.24
2019-01-29T21:10:03.454Z,0.26
2019-01-29T21:12:34.290Z,0.26
2019-01-29T21:15:07.005Z,0.29
2019-01-29T21:17:38.093Z,0.38
2019-01-29T21:20:12.023Z,0.38
2019-01-29T21:22:43.101Z,0.36
2019-01-29T21:25:14.593Z,0.38
2019-01-29T21:27:45.502Z,0.35
2019-01-29T21:30:45.820Z,0.44
2019-01-29T21:33:16.834Z,0.45
2019-01-29T21:35:47.920Z,0.62
2019-01-29T21:38:18.758Z,0.63
2019-01-29T21:40:49.613Z,0.53
2019-01-29T21:43:20.719Z,0.54
2019-01-29T21:45:51.903Z,0.52
2019-01-29T21:48:22.735Z,0.40
2019-01-29T21:50:53.609Z,0.35
2019-01-29T21:53:24.602Z,0.30
2019-01-29T21:55:55.930Z,0.24
2019-01-29T21:58:26.792Z,0.13
2019-01-29T22:00:57.933Z,0.21
2019-01-29T22:03:28.771Z,0.26
2019-01-29T22:05:59.853Z,0.17
2019-01-29T22:08:30.732Z,0.18
2019-01-29T22:11:02.070Z,0.30
2019-01-29T22:13:32.939Z,0.38
2019-01-29T22:16:03.764Z,0.38
2019-01-29T22:18:34.528Z,0.38
2019-01-29T22:21:05.656Z,0.46
2019-01-29T22:23:36.732Z,0.37
2019-01-29T22:26:08.000Z,0.41
2019-01-29T22:28:39.367Z,0.37
2019-01-29T22:31:11.220Z,0.37
2019-01-29T22:33:42.133Z,0.45
2019-01-29T22:36:13.161Z,0.43
2019-01-29T22:38:43.948Z,0.48
2019-01-29T22:41:15.120Z,0.53
2019-01-29T22:43:46.207Z,0.50
2019-01-29T22:46:20.857Z,0.36
2019-01-29T22:48:51.861Z,0.31
2019-01-29T22:51:23.023Z,0.34
2019-01-29T22:53:54.131Z,0.41
2019-01-29T22:56:25.280Z,0.37
2019-01-29T22:58:56.286Z,0.32
2019-01-29T23:01:38.410Z,0.31
2019-01-29T23:04:17.405Z,0.44
2019-01-29T23:07:15.774Z,0.41
2019-01-29T23:09:46.626Z,0.36
2019-01-29T23:12:17.492Z,0.42
2019-01-29T23:14:48.667Z,0.47
2019-01-29T23:17:19.564Z,0.46
2019-01-29T23:19:50.375Z,0.55
2019-01-29T23:22:21.378Z,0.55
2019-01-29T23:24:52.569Z,0.52
2019-01-29T23:27:25.375Z,0.52
2019-01-29T23:29:56.159Z,0.49
2019-01-29T23:32:27.149Z,0.44
2019-01-29T23:34:58.227Z,0.49
2019-01-29T23:37:29.004Z,0.47
2019-01-29T23:39:59.772Z,0.44
2019-01-29T23:42:31.027Z,0.56
2019-01-29T23:45:02.068Z,0.50
2019-01-29T23:47:32.923Z,0.48
2019-01-29T23:50:04.523Z,0.49
2019-01-29T23:52:35.604Z,0.49
2019-01-29T23:55:07.050Z,0.58
2019-01-29T23:57:38.138Z,0.57
